sensor_id;sensor_type;location;lat;lon;timestamp;temperature;humidity
152;DHT22;68;48.792;9.164;2022-08-19T00:00:30;22.30;81.80
152;DHT22;68;48.792;9.164;2022-08-19T00:02:57;22.30;82.20
152;DHT22;68;48.792;9.164;2022-08-19T00:05:24;22.30;81.50
152;DHT22;68;48.792;9.164;2022-08-19T00:07:51;22.50;80.70
152;DHT22;68;48.792;9.164;2022-08-19T00:10:19;22.50;80.30
152;DHT22;68;48.792;9.164;2022-08-19T00:12:46;22.60;80.20
152;DHT22;68;48.792;9.164;2022-08-19T00:15:17;22.80;79.30
152;DHT22;68;48.792;9.164;2022-08-19T00:17:45;22.80;79.30
152;DHT22;68;48.792;9.164;2022-08-19T00:20:15;22.60;79.90
152;DHT22;68;48.792;9.164;2022-08-19T00:22:43;22.40;81.10
152;DHT22;68;48.792;9.164;2022-08-19T00:25:11;22.40;80.70
152;DHT22;68;48.792;9.164;2022-08-19T00:27:38;22.40;81.20
152;DHT22;68;48.792;9.164;2022-08-19T00:30:07;22.40;81.00
152;DHT22;68;48.792;9.164;2022-08-19T00:32:36;22.10;81.80
152;DHT22;68;48.792;9.164;2022-08-19T00:35:04;22.00;83.00
152;DHT22;68;48.792;9.164;2022-08-19T00:37:31;22.00;83.30
152;DHT22;68;48.792;9.164;2022-08-19T00:40:00;22.00;82.70
152;DHT22;68;48.792;9.164;2022-08-19T00:42:31;22.20;81.80
152;DHT22;68;48.792;9.164;2022-08-19T00:44:59;22.10;82.40
152;DHT22;68;48.792;9.164;2022-08-19T00:47:26;22.20;82.40
152;DHT22;68;48.792;9.164;2022-08-19T00:49:57;22.20;82.00
152;DHT22;68;48.792;9.164;2022-08-19T00:52:27;22.00;82.00
152;DHT22;68;48.792;9.164;2022-08-19T00:54:56;22.10;82.10
152;DHT22;68;48.792;9.164;2022-08-19T00:57:27;22.10;81.90
152;DHT22;68;48.792;9.164;2022-08-19T00:59:56;22.10;82.00
152;DHT22;68;48.792;9.164;2022-08-19T01:02:24;21.90;83.30
152;DHT22;68;48.792;9.164;2022-08-19T01:04:52;22.00;82.30
152;DHT22;68;48.792;9.164;2022-08-19T01:07:21;21.90;82.80
152;DHT22;68;48.792;9.164;2022-08-19T01:09:48;21.90;82.90
152;DHT22;68;48.792;9.164;2022-08-19T01:12:16;22.10;82.60
152;DHT22;68;48.792;9.164;2022-08-19T01:14:43;22.20;82.10
152;DHT22;68;48.792;9.164;2022-08-19T01:17:11;22.30;82.40
152;DHT22;68;48.792;9.164;2022-08-19T01:19:41;22.20;81.90
152;DHT22;68;48.792;9.164;2022-08-19T01:22:12;21.90;82.60
152;DHT22;68;48.792;9.164;2022-08-19T01:24:42;21.90;82.90
152;DHT22;68;48.792;9.164;2022-08-19T01:27:09;21.90;83.30
152;DHT22;68;48.792;9.164;2022-08-19T01:29:38;21.80;83.50
152;DHT22;68;48.792;9.164;2022-08-19T01:32:05;21.70;84.20
152;DHT22;68;48.792;9.164;2022-08-19T01:34:32;21.60;84.50
152;DHT22;68;48.792;9.164;2022-08-19T01:37:00;21.60;85.00
152;DHT22;68;48.792;9.164;2022-08-19T01:39:32;21.50;84.60
152;DHT22;68;48.792;9.164;2022-08-19T01:42:00;21.70;84.60
152;DHT22;68;48.792;9.164;2022-08-19T01:44:28;21.60;84.70
152;DHT22;68;48.792;9.164;2022-08-19T01:46:56;21.70;84.60
152;DHT22;68;48.792;9.164;2022-08-19T01:49:24;21.90;83.50
152;DHT22;68;48.792;9.164;2022-08-19T01:51:54;22.20;82.50
152;DHT22;68;48.792;9.164;2022-08-19T01:54:24;22.10;82.20
152;DHT22;68;48.792;9.164;2022-08-19T01:56:51;22.10;82.60
152;DHT22;68;48.792;9.164;2022-08-19T01:59:22;22.00;82.50
152;DHT22;68;48.792;9.164;2022-08-19T02:01:49;21.90;82.90
152;DHT22;68;48.792;9.164;2022-08-19T02:04:16;21.80;84.10
152;DHT22;68;48.792;9.164;2022-08-19T02:06:48;21.70;84.90
152;DHT22;68;48.792;9.164;2022-08-19T02:09:15;21.80;84.00
152;DHT22;68;48.792;9.164;2022-08-19T02:11:45;21.70;84.30
152;DHT22;68;48.792;9.164;2022-08-19T02:14:12;21.70;84.20
152;DHT22;68;48.792;9.164;2022-08-19T02:16:40;21.70;84.40
152;DHT22;68;48.792;9.164;2022-08-19T02:19:07;21.60;84.90
152;DHT22;68;48.792;9.164;2022-08-19T02:21:36;21.60;85.20
152;DHT22;68;48.792;9.164;2022-08-19T02:24:03;21.60;85.10
152;DHT22;68;48.792;9.164;2022-08-19T02:26:31;21.80;84.70
152;DHT22;68;48.792;9.164;2022-08-19T02:28:58;21.80;84.00
152;DHT22;68;48.792;9.164;2022-08-19T02:31:26;21.70;84.40
152;DHT22;68;48.792;9.164;2022-08-19T02:33:55;21.70;84.60
152;DHT22;68;48.792;9.164;2022-08-19T02:36:22;21.80;84.70
152;DHT22;68;48.792;9.164;2022-08-19T02:38:49;21.80;84.40
152;DHT22;68;48.792;9.164;2022-08-19T02:41:18;21.60;85.20
152;DHT22;68;48.792;9.164;2022-08-19T02:43:48;21.60;85.50
152;DHT22;68;48.792;9.164;2022-08-19T02:46:18;21.70;85.30
152;DHT22;68;48.792;9.164;2022-08-19T02:48:48;21.70;85.20
152;DHT22;68;48.792;9.164;2022-08-19T02:51:24;21.60;85.40
152;DHT22;68;48.792;9.164;2022-08-19T02:53:52;21.40;85.70
152;DHT22;68;48.792;9.164;2022-08-19T02:56:19;21.30;86.80
152;DHT22;68;48.792;9.164;2022-08-19T02:58:46;21.30;86.90
152;DHT22;68;48.792;9.164;2022-08-19T03:01:20;21.30;86.80
152;DHT22;68;48.792;9.164;2022-08-19T03:03:47;21.40;86.70
152;DHT22;68;48.792;9.164;2022-08-19T03:06:15;21.50;86.30
152;DHT22;68;48.792;9.164;2022-08-19T03:08:45;21.70;85.50
152;DHT22;68;48.792;9.164;2022-08-19T03:11:14;21.70;85.50
152;DHT22;68;48.792;9.164;2022-08-19T03:13:41;21.60;86.00
152;DHT22;68;48.792;9.164;2022-08-19T03:16:08;21.50;86.50
152;DHT22;68;48.792;9.164;2022-08-19T03:18:41;21.20;89.70
152;DHT22;68;48.792;9.164;2022-08-19T03:21:15;21.00;90.90
152;DHT22;68;48.792;9.164;2022-08-19T03:23:44;20.80;91.20
152;DHT22;68;48.792;9.164;2022-08-19T03:26:11;20.80;91.80
152;DHT22;68;48.792;9.164;2022-08-19T03:28:38;20.80;91.70
152;DHT22;68;48.792;9.164;2022-08-19T03:31:07;20.70;91.70
152;DHT22;68;48.792;9.164;2022-08-19T03:33:34;20.80;91.80
152;DHT22;68;48.792;9.164;2022-08-19T03:36:04;20.80;91.80
152;DHT22;68;48.792;9.164;2022-08-19T03:38:33;21.00;91.30
152;DHT22;68;48.792;9.164;2022-08-19T03:41:04;20.80;91.80
152;DHT22;68;48.792;9.164;2022-08-19T03:43:34;20.90;91.70
152;DHT22;68;48.792;9.164;2022-08-19T03:46:04;20.80;91.10
152;DHT22;68;48.792;9.164;2022-08-19T03:48:32;20.80;91.50
152;DHT22;68;48.792;9.164;2022-08-19T03:50:59;21.00;91.20
152;DHT22;68;48.792;9.164;2022-08-19T03:53:26;20.90;90.30
152;DHT22;68;48.792;9.164;2022-08-19T03:55:54;20.70;90.50
152;DHT22;68;48.792;9.164;2022-08-19T03:58:23;20.80;90.90
152;DHT22;68;48.792;9.164;2022-08-19T04:00:50;20.90;90.50
152;DHT22;68;48.792;9.164;2022-08-19T04:03:17;20.90;90.20
152;DHT22;68;48.792;9.164;2022-08-19T04:05:45;20.80;90.70
152;DHT22;68;48.792;9.164;2022-08-19T04:08:13;20.80;90.60
152;DHT22;68;48.792;9.164;2022-08-19T04:10:41;20.90;90.30
152;DHT22;68;48.792;9.164;2022-08-19T04:13:07;21.10;89.20
152;DHT22;68;48.792;9.164;2022-08-19T04:15:39;21.10;89.00
152;DHT22;68;48.792;9.164;2022-08-19T04:18:07;21.10;88.60
152;DHT22;68;48.792;9.164;2022-08-19T04:20:39;21.00;88.90
152;DHT22;68;48.792;9.164;2022-08-19T04:23:06;21.10;88.70
152;DHT22;68;48.792;9.164;2022-08-19T04:25:36;21.00;88.60
152;DHT22;68;48.792;9.164;2022-08-19T04:28:06;20.90;89.00
152;DHT22;68;48.792;9.164;2022-08-19T04:30:43;20.80;89.60
152;DHT22;68;48.792;9.164;2022-08-19T04:33:12;20.70;89.90
152;DHT22;68;48.792;9.164;2022-08-19T04:35:40;20.60;90.40
152;DHT22;68;48.792;9.164;2022-08-19T04:38:08;20.60;90.10
152;DHT22;68;48.792;9.164;2022-08-19T04:40:40;20.60;90.50
152;DHT22;68;48.792;9.164;2022-08-19T04:43:24;20.80;89.90
152;DHT22;68;48.792;9.164;2022-08-19T04:45:55;20.80;89.40
152;DHT22;68;48.792;9.164;2022-08-19T04:48:23;20.90;89.00
152;DHT22;68;48.792;9.164;2022-08-19T04:50:52;21.00;88.70
152;DHT22;68;48.792;9.164;2022-08-19T04:53:23;20.90;89.00
152;DHT22;68;48.792;9.164;2022-08-19T04:55:50;21.00;89.40
152;DHT22;68;48.792;9.164;2022-08-19T04:58:18;20.80;90.00
152;DHT22;68;48.792;9.164;2022-08-19T05:00:44;20.70;89.80
152;DHT22;68;48.792;9.164;2022-08-19T05:03:13;20.70;89.70
152;DHT22;68;48.792;9.164;2022-08-19T05:05:43;20.70;89.90
152;DHT22;68;48.792;9.164;2022-08-19T05:08:10;20.60;90.20
152;DHT22;68;48.792;9.164;2022-08-19T05:10:38;20.80;89.70
152;DHT22;68;48.792;9.164;2022-08-19T05:13:08;20.90;89.20
152;DHT22;68;48.792;9.164;2022-08-19T05:15:36;20.80;89.20
152;DHT22;68;48.792;9.164;2022-08-19T05:18:03;20.80;89.80
152;DHT22;68;48.792;9.164;2022-08-19T05:20:49;20.80;90.20
152;DHT22;68;48.792;9.164;2022-08-19T05:23:33;20.80;89.40
152;DHT22;68;48.792;9.164;2022-08-19T05:26:00;20.90;89.50
152;DHT22;68;48.792;9.164;2022-08-19T05:28:27;20.90;89.60
152;DHT22;68;48.792;9.164;2022-08-19T05:30:54;20.80;89.60
152;DHT22;68;48.792;9.164;2022-08-19T05:33:21;20.90;89.60
152;DHT22;68;48.792;9.164;2022-08-19T05:35:51;21.00;88.90
152;DHT22;68;48.792;9.164;2022-08-19T05:38:18;21.10;88.90
152;DHT22;68;48.792;9.164;2022-08-19T05:40:45;21.20;88.70
152;DHT22;68;48.792;9.164;2022-08-19T05:43:14;21.30;88.20
152;DHT22;68;48.792;9.164;2022-08-19T05:45:42;21.00;89.10
152;DHT22;68;48.792;9.164;2022-08-19T05:48:10;20.80;89.70
152;DHT22;68;48.792;9.164;2022-08-19T05:50:39;20.90;90.20
152;DHT22;68;48.792;9.164;2022-08-19T05:53:08;21.10;89.30
152;DHT22;68;48.792;9.164;2022-08-19T05:55:35;21.10;89.00
152;DHT22;68;48.792;9.164;2022-08-19T05:58:03;20.90;89.50
152;DHT22;68;48.792;9.164;2022-08-19T06:00:32;20.80;89.90
152;DHT22;68;48.792;9.164;2022-08-19T06:02:59;20.80;90.00
152;DHT22;68;48.792;9.164;2022-08-19T06:05:28;20.80;90.30
152;DHT22;68;48.792;9.164;2022-08-19T06:07:55;21.00;89.30
152;DHT22;68;48.792;9.164;2022-08-19T06:10:24;21.00;89.00
152;DHT22;68;48.792;9.164;2022-08-19T06:12:51;21.10;89.20
152;DHT22;68;48.792;9.164;2022-08-19T06:15:19;21.00;88.90
152;DHT22;68;48.792;9.164;2022-08-19T06:17:47;21.00;89.80
152;DHT22;68;48.792;9.164;2022-08-19T06:20:14;21.00;89.30
152;DHT22;68;48.792;9.164;2022-08-19T06:22:45;20.90;89.50
152;DHT22;68;48.792;9.164;2022-08-19T06:25:13;21.00;89.40
152;DHT22;68;48.792;9.164;2022-08-19T06:27:42;21.00;89.00
152;DHT22;68;48.792;9.164;2022-08-19T06:30:09;20.90;89.60
152;DHT22;68;48.792;9.164;2022-08-19T06:32:37;21.00;89.50
152;DHT22;68;48.792;9.164;2022-08-19T06:35:05;20.90;89.40
152;DHT22;68;48.792;9.164;2022-08-19T06:37:32;20.90;89.80
152;DHT22;68;48.792;9.164;2022-08-19T06:39:59;20.90;90.00
152;DHT22;68;48.792;9.164;2022-08-19T06:42:26;21.00;89.70
152;DHT22;68;48.792;9.164;2022-08-19T06:44:54;21.10;89.70
152;DHT22;68;48.792;9.164;2022-08-19T06:47:22;20.90;90.60
152;DHT22;68;48.792;9.164;2022-08-19T06:49:53;21.00;91.80
152;DHT22;68;48.792;9.164;2022-08-19T06:52:25;20.90;92.00
152;DHT22;68;48.792;9.164;2022-08-19T06:54:52;20.80;92.30
152;DHT22;68;48.792;9.164;2022-08-19T06:57:21;20.90;92.00
152;DHT22;68;48.792;9.164;2022-08-19T06:59:48;21.10;92.10
152;DHT22;68;48.792;9.164;2022-08-19T07:02:16;20.90;92.10
152;DHT22;68;48.792;9.164;2022-08-19T07:04:43;21.00;91.80
152;DHT22;68;48.792;9.164;2022-08-19T07:07:12;20.90;92.20
152;DHT22;68;48.792;9.164;2022-08-19T07:09:41;20.90;91.70
152;DHT22;68;48.792;9.164;2022-08-19T07:12:10;21.00;92.00
152;DHT22;68;48.792;9.164;2022-08-19T07:14:39;20.90;92.20
152;DHT22;68;48.792;9.164;2022-08-19T07:17:09;20.90;91.80
152;DHT22;68;48.792;9.164;2022-08-19T07:19:39;20.90;92.00
152;DHT22;68;48.792;9.164;2022-08-19T07:22:07;20.70;92.20
152;DHT22;68;48.792;9.164;2022-08-19T07:24:36;20.60;92.00
152;DHT22;68;48.792;9.164;2022-08-19T07:27:05;20.80;92.60
152;DHT22;68;48.792;9.164;2022-08-19T07:29:34;20.90;92.20
152;DHT22;68;48.792;9.164;2022-08-19T07:32:03;20.80;92.20
152;DHT22;68;48.792;9.164;2022-08-19T07:34:31;20.70;92.10
152;DHT22;68;48.792;9.164;2022-08-19T07:37:01;20.70;92.30
152;DHT22;68;48.792;9.164;2022-08-19T07:39:31;20.60;92.30
152;DHT22;68;48.792;9.164;2022-08-19T07:42:01;20.60;92.40
152;DHT22;68;48.792;9.164;2022-08-19T07:44:28;20.60;92.30
152;DHT22;68;48.792;9.164;2022-08-19T07:46:56;20.40;92.20
152;DHT22;68;48.792;9.164;2022-08-19T07:49:24;20.50;92.30
152;DHT22;68;48.792;9.164;2022-08-19T07:51:55;20.50;92.20
152;DHT22;68;48.792;9.164;2022-08-19T07:54:25;20.50;92.50
152;DHT22;68;48.792;9.164;2022-08-19T07:56:53;20.60;92.30
152;DHT22;68;48.792;9.164;2022-08-19T07:59:21;20.90;92.30
152;DHT22;68;48.792;9.164;2022-08-19T08:01:48;20.80;91.60
152;DHT22;68;48.792;9.164;2022-08-19T08:04:16;20.90;91.70
152;DHT22;68;48.792;9.164;2022-08-19T08:07:01;21.00;91.60
152;DHT22;68;48.792;9.164;2022-08-19T08:09:47;21.10;91.30
152;DHT22;68;48.792;9.164;2022-08-19T08:12:16;21.10;91.10
152;DHT22;68;48.792;9.164;2022-08-19T08:14:45;20.90;90.40
152;DHT22;68;48.792;9.164;2022-08-19T08:17:13;20.60;91.70
152;DHT22;68;48.792;9.164;2022-08-19T08:19:41;20.50;91.90
152;DHT22;68;48.792;9.164;2022-08-19T08:22:09;20.50;92.00
152;DHT22;68;48.792;9.164;2022-08-19T08:25:01;20.60;91.80
152;DHT22;68;48.792;9.164;2022-08-19T08:27:28;20.60;91.90
152;DHT22;68;48.792;9.164;2022-08-19T08:29:56;20.60;91.50
152;DHT22;68;48.792;9.164;2022-08-19T08:32:24;20.70;91.50
152;DHT22;68;48.792;9.164;2022-08-19T08:34:50;20.90;91.40
152;DHT22;68;48.792;9.164;2022-08-19T08:37:19;20.90;91.00
152;DHT22;68;48.792;9.164;2022-08-19T08:39:47;20.80;91.10
152;DHT22;68;48.792;9.164;2022-08-19T08:42:20;20.90;91.20
152;DHT22;68;48.792;9.164;2022-08-19T08:44:55;21.10;90.90
152;DHT22;68;48.792;9.164;2022-08-19T08:47:25;21.20;91.10
152;DHT22;68;48.792;9.164;2022-08-19T08:49:57;21.20;91.80
152;DHT22;68;48.792;9.164;2022-08-19T08:52:29;21.00;92.10
152;DHT22;68;48.792;9.164;2022-08-19T08:55:03;20.80;92.40
152;DHT22;68;48.792;9.164;2022-08-19T08:57:36;20.80;92.10
152;DHT22;68;48.792;9.164;2022-08-19T09:00:08;20.90;92.20
152;DHT22;68;48.792;9.164;2022-08-19T09:02:36;20.90;92.00
152;DHT22;68;48.792;9.164;2022-08-19T09:05:03;20.90;92.30
152;DHT22;68;48.792;9.164;2022-08-19T09:07:40;21.00;92.00
152;DHT22;68;48.792;9.164;2022-08-19T09:10:13;20.90;92.30
152;DHT22;68;48.792;9.164;2022-08-19T09:12:51;21.10;91.90
152;DHT22;68;48.792;9.164;2022-08-19T09:15:27;21.10;92.00
152;DHT22;68;48.792;9.164;2022-08-19T09:17:59;20.90;92.30
152;DHT22;68;48.792;9.164;2022-08-19T09:20:28;21.00;92.10
152;DHT22;68;48.792;9.164;2022-08-19T09:22:57;21.10;91.70
152;DHT22;68;48.792;9.164;2022-08-19T09:25:25;21.10;92.10
152;DHT22;68;48.792;9.164;2022-08-19T09:27:54;21.20;92.20
152;DHT22;68;48.792;9.164;2022-08-19T09:30:24;21.30;92.30
152;DHT22;68;48.792;9.164;2022-08-19T09:32:52;21.30;92.40
152;DHT22;68;48.792;9.164;2022-08-19T09:35:21;21.20;92.20
152;DHT22;68;48.792;9.164;2022-08-19T09:37:49;21.30;92.30
152;DHT22;68;48.792;9.164;2022-08-19T09:40:16;21.30;92.10
152;DHT22;68;48.792;9.164;2022-08-19T09:42:44;21.30;92.20
152;DHT22;68;48.792;9.164;2022-08-19T09:45:14;21.40;92.20
152;DHT22;68;48.792;9.164;2022-08-19T09:47:42;21.60;91.90
152;DHT22;68;48.792;9.164;2022-08-19T09:50:10;21.60;91.60
152;DHT22;68;48.792;9.164;2022-08-19T09:52:38;21.60;91.40
152;DHT22;68;48.792;9.164;2022-08-19T09:55:05;21.60;91.00
152;DHT22;68;48.792;9.164;2022-08-19T09:57:33;21.50;91.40
152;DHT22;68;48.792;9.164;2022-08-19T10:00:00;21.60;91.50
152;DHT22;68;48.792;9.164;2022-08-19T10:02:28;21.70;91.30
152;DHT22;68;48.792;9.164;2022-08-19T10:04:55;21.60;91.20
152;DHT22;68;48.792;9.164;2022-08-19T10:07:39;21.40;91.30
152;DHT22;68;48.792;9.164;2022-08-19T10:10:07;21.50;91.50
152;DHT22;68;48.792;9.164;2022-08-19T10:12:35;21.50;91.10
152;DHT22;68;48.792;9.164;2022-08-19T10:15:04;21.60;91.00
152;DHT22;68;48.792;9.164;2022-08-19T10:17:33;21.90;90.70
152;DHT22;68;48.792;9.164;2022-08-19T10:20:01;21.90;90.40
152;DHT22;68;48.792;9.164;2022-08-19T10:22:29;21.70;90.60
152;DHT22;68;48.792;9.164;2022-08-19T10:24:56;21.80;90.20
152;DHT22;68;48.792;9.164;2022-08-19T10:27:23;21.90;89.90
152;DHT22;68;48.792;9.164;2022-08-19T10:29:50;22.00;89.30
152;DHT22;68;48.792;9.164;2022-08-19T10:32:17;21.90;89.60
152;DHT22;68;48.792;9.164;2022-08-19T10:34:46;21.90;89.70
152;DHT22;68;48.792;9.164;2022-08-19T10:37:15;21.90;88.90
152;DHT22;68;48.792;9.164;2022-08-19T10:39:45;21.80;89.60
152;DHT22;68;48.792;9.164;2022-08-19T10:42:13;21.90;89.70
152;DHT22;68;48.792;9.164;2022-08-19T10:44:42;21.80;89.70
152;DHT22;68;48.792;9.164;2022-08-19T10:47:09;21.80;89.40
152;DHT22;68;48.792;9.164;2022-08-19T10:49:36;21.80;89.10
152;DHT22;68;48.792;9.164;2022-08-19T10:52:24;21.90;88.90
152;DHT22;68;48.792;9.164;2022-08-19T10:54:59;22.20;88.50
152;DHT22;68;48.792;9.164;2022-08-19T10:57:44;22.40;87.80
152;DHT22;68;48.792;9.164;2022-08-19T11:00:12;22.50;87.50
152;DHT22;68;48.792;9.164;2022-08-19T11:02:39;22.40;86.40
152;DHT22;68;48.792;9.164;2022-08-19T11:05:08;22.30;86.60
152;DHT22;68;48.792;9.164;2022-08-19T11:07:38;22.40;87.00
152;DHT22;68;48.792;9.164;2022-08-19T11:10:06;22.40;86.60
152;DHT22;68;48.792;9.164;2022-08-19T11:12:33;22.40;86.10
152;DHT22;68;48.792;9.164;2022-08-19T11:15:00;22.60;85.20
152;DHT22;68;48.792;9.164;2022-08-19T11:17:27;22.70;84.70
152;DHT22;68;48.792;9.164;2022-08-19T11:19:56;22.60;85.20
152;DHT22;68;48.792;9.164;2022-08-19T11:22:23;22.90;84.90
152;DHT22;68;48.792;9.164;2022-08-19T11:24:51;23.10;83.20
152;DHT22;68;48.792;9.164;2022-08-19T11:27:18;23.10;82.90
152;DHT22;68;48.792;9.164;2022-08-19T11:29:45;23.00;83.40
152;DHT22;68;48.792;9.164;2022-08-19T11:32:12;23.10;83.60
152;DHT22;68;48.792;9.164;2022-08-19T11:34:41;23.10;82.60
152;DHT22;68;48.792;9.164;2022-08-19T11:37:09;23.00;83.30
152;DHT22;68;48.792;9.164;2022-08-19T11:39:36;22.90;83.20
152;DHT22;68;48.792;9.164;2022-08-19T11:42:06;23.10;83.10
152;DHT22;68;48.792;9.164;2022-08-19T11:44:47;23.10;81.90
152;DHT22;68;48.792;9.164;2022-08-19T11:47:14;23.30;81.80
152;DHT22;68;48.792;9.164;2022-08-19T11:49:42;23.10;80.50
152;DHT22;68;48.792;9.164;2022-08-19T11:52:08;23.00;81.40
152;DHT22;68;48.792;9.164;2022-08-19T11:54:36;23.10;81.10
152;DHT22;68;48.792;9.164;2022-08-19T11:57:04;23.30;80.80
152;DHT22;68;48.792;9.164;2022-08-19T11:59:31;23.60;80.80
152;DHT22;68;48.792;9.164;2022-08-19T12:01:58;23.60;80.80
152;DHT22;68;48.792;9.164;2022-08-19T12:04:25;23.70;80.00
152;DHT22;68;48.792;9.164;2022-08-19T12:06:52;23.60;80.90
152;DHT22;68;48.792;9.164;2022-08-19T12:09:20;23.70;79.90
152;DHT22;68;48.792;9.164;2022-08-19T12:11:48;23.90;79.70
152;DHT22;68;48.792;9.164;2022-08-19T12:14:17;23.90;77.80
152;DHT22;68;48.792;9.164;2022-08-19T12:16:45;23.90;78.30
152;DHT22;68;48.792;9.164;2022-08-19T12:19:12;24.00;78.60
152;DHT22;68;48.792;9.164;2022-08-19T12:21:39;23.80;79.40
152;DHT22;68;48.792;9.164;2022-08-19T12:24:07;23.70;80.10
152;DHT22;68;48.792;9.164;2022-08-19T12:26:34;23.90;79.50
152;DHT22;68;48.792;9.164;2022-08-19T12:29:02;24.00;78.90
152;DHT22;68;48.792;9.164;2022-08-19T12:31:31;24.00;77.70
152;DHT22;68;48.792;9.164;2022-08-19T12:33:58;24.00;78.30
152;DHT22;68;48.792;9.164;2022-08-19T12:36:28;24.10;78.60
152;DHT22;68;48.792;9.164;2022-08-19T12:38:55;24.20;78.70
152;DHT22;68;48.792;9.164;2022-08-19T12:41:24;24.10;79.00
152;DHT22;68;48.792;9.164;2022-08-19T12:43:51;24.00;78.80
152;DHT22;68;48.792;9.164;2022-08-19T12:46:19;23.90;78.80
152;DHT22;68;48.792;9.164;2022-08-19T12:48:47;23.80;80.60
152;DHT22;68;48.792;9.164;2022-08-19T12:51:17;23.10;83.80
152;DHT22;68;48.792;9.164;2022-08-19T12:53:45;22.90;85.30
152;DHT22;68;48.792;9.164;2022-08-19T12:56:12;22.60;86.90
152;DHT22;68;48.792;9.164;2022-08-19T12:58:40;22.70;86.80
152;DHT22;68;48.792;9.164;2022-08-19T13:01:09;23.10;85.30
152;DHT22;68;48.792;9.164;2022-08-19T13:03:37;23.30;84.10
152;DHT22;68;48.792;9.164;2022-08-19T13:06:06;23.50;83.30
152;DHT22;68;48.792;9.164;2022-08-19T13:08:33;23.80;82.40
152;DHT22;68;48.792;9.164;2022-08-19T13:11:08;23.90;81.70
152;DHT22;68;48.792;9.164;2022-08-19T13:13:36;23.70;82.10
152;DHT22;68;48.792;9.164;2022-08-19T13:16:03;23.40;83.50
152;DHT22;68;48.792;9.164;2022-08-19T13:18:30;23.50;83.60
152;DHT22;68;48.792;9.164;2022-08-19T13:21:01;23.40;83.10
152;DHT22;68;48.792;9.164;2022-08-19T13:23:30;23.00;85.20
152;DHT22;68;48.792;9.164;2022-08-19T13:25:58;22.90;86.90
152;DHT22;68;48.792;9.164;2022-08-19T13:28:25;22.80;88.50
152;DHT22;68;48.792;9.164;2022-08-19T13:30:52;22.70;88.90
152;DHT22;68;48.792;9.164;2022-08-19T13:33:36;22.40;90.20
152;DHT22;68;48.792;9.164;2022-08-19T13:36:04;22.20;91.60
152;DHT22;68;48.792;9.164;2022-08-19T13:38:34;22.30;91.80
152;DHT22;68;48.792;9.164;2022-08-19T13:41:05;22.40;91.60
152;DHT22;68;48.792;9.164;2022-08-19T13:43:32;22.60;91.60
152;DHT22;68;48.792;9.164;2022-08-19T13:45:58;22.60;91.70
152;DHT22;68;48.792;9.164;2022-08-19T13:48:26;22.50;91.80
152;DHT22;68;48.792;9.164;2022-08-19T13:50:53;22.30;91.70
152;DHT22;68;48.792;9.164;2022-08-19T13:53:20;22.20;91.60
152;DHT22;68;48.792;9.164;2022-08-19T13:55:48;22.20;91.10
152;DHT22;68;48.792;9.164;2022-08-19T13:58:16;22.30;91.50
152;DHT22;68;48.792;9.164;2022-08-19T14:00:46;22.10;90.40
152;DHT22;68;48.792;9.164;2022-08-19T14:03:13;22.10;88.90
152;DHT22;68;48.792;9.164;2022-08-19T14:05:40;22.40;89.40
152;DHT22;68;48.792;9.164;2022-08-19T14:08:07;22.40;90.50
152;DHT22;68;48.792;9.164;2022-08-19T14:10:34;22.60;91.60
152;DHT22;68;48.792;9.164;2022-08-19T14:13:03;22.60;91.80
152;DHT22;68;48.792;9.164;2022-08-19T14:15:31;22.30;91.30
152;DHT22;68;48.792;9.164;2022-08-19T14:17:58;22.40;91.30
152;DHT22;68;48.792;9.164;2022-08-19T14:20:26;22.50;91.00
152;DHT22;68;48.792;9.164;2022-08-19T14:22:54;22.70;91.70
152;DHT22;68;48.792;9.164;2022-08-19T14:25:24;22.80;91.40
152;DHT22;68;48.792;9.164;2022-08-19T14:27:51;22.90;91.70
152;DHT22;68;48.792;9.164;2022-08-19T14:30:21;23.00;91.90
152;DHT22;68;48.792;9.164;2022-08-19T14:32:50;23.00;91.70
152;DHT22;68;48.792;9.164;2022-08-19T14:35:17;23.00;91.70
152;DHT22;68;48.792;9.164;2022-08-19T14:37:45;23.10;91.80
152;DHT22;68;48.792;9.164;2022-08-19T14:40:14;23.10;91.50
152;DHT22;68;48.792;9.164;2022-08-19T14:42:41;22.90;91.70
152;DHT22;68;48.792;9.164;2022-08-19T14:45:09;22.90;91.70
152;DHT22;68;48.792;9.164;2022-08-19T14:47:38;22.80;91.70
152;DHT22;68;48.792;9.164;2022-08-19T14:50:06;23.00;91.10
152;DHT22;68;48.792;9.164;2022-08-19T14:52:33;23.10;90.60
152;DHT22;68;48.792;9.164;2022-08-19T14:55:00;23.10;90.30
152;DHT22;68;48.792;9.164;2022-08-19T14:57:27;23.10;90.40
152;DHT22;68;48.792;9.164;2022-08-19T14:59:54;23.00;90.60
152;DHT22;68;48.792;9.164;2022-08-19T15:02:22;22.90;90.70
152;DHT22;68;48.792;9.164;2022-08-19T15:04:50;23.00;90.50
152;DHT22;68;48.792;9.164;2022-08-19T15:07:17;23.20;90.20
152;DHT22;68;48.792;9.164;2022-08-19T15:09:44;23.40;89.40
152;DHT22;68;48.792;9.164;2022-08-19T15:12:11;23.50;88.40
152;DHT22;68;48.792;9.164;2022-08-19T15:14:38;23.60;88.30
152;DHT22;68;48.792;9.164;2022-08-19T15:17:07;23.60;88.00
152;DHT22;68;48.792;9.164;2022-08-19T15:19:34;23.50;87.70
152;DHT22;68;48.792;9.164;2022-08-19T15:22:02;23.40;88.90
152;DHT22;68;48.792;9.164;2022-08-19T15:24:29;23.40;88.90
152;DHT22;68;48.792;9.164;2022-08-19T15:27:00;23.50;88.00
152;DHT22;68;48.792;9.164;2022-08-19T15:29:27;23.40;88.40
152;DHT22;68;48.792;9.164;2022-08-19T15:31:54;23.30;89.20
152;DHT22;68;48.792;9.164;2022-08-19T15:34:21;23.30;88.50
152;DHT22;68;48.792;9.164;2022-08-19T15:36:48;23.30;87.60
152;DHT22;68;48.792;9.164;2022-08-19T15:39:17;23.20;87.40
152;DHT22;68;48.792;9.164;2022-08-19T15:41:44;23.40;87.50
152;DHT22;68;48.792;9.164;2022-08-19T15:44:15;23.50;87.60
152;DHT22;68;48.792;9.164;2022-08-19T15:46:45;23.60;86.20
152;DHT22;68;48.792;9.164;2022-08-19T15:49:14;23.70;86.20
152;DHT22;68;48.792;9.164;2022-08-19T15:51:44;23.80;85.50
152;DHT22;68;48.792;9.164;2022-08-19T15:54:14;24.00;85.30
152;DHT22;68;48.792;9.164;2022-08-19T15:56:43;24.10;84.80
152;DHT22;68;48.792;9.164;2022-08-19T15:59:27;24.00;84.00
152;DHT22;68;48.792;9.164;2022-08-19T16:02:12;23.80;85.90
152;DHT22;68;48.792;9.164;2022-08-19T16:04:56;23.70;86.20
152;DHT22;68;48.792;9.164;2022-08-19T16:07:40;23.80;85.70
152;DHT22;68;48.792;9.164;2022-08-19T16:10:07;24.00;85.50
152;DHT22;68;48.792;9.164;2022-08-19T16:12:36;23.70;86.20
152;DHT22;68;48.792;9.164;2022-08-19T16:15:04;23.40;87.70
152;DHT22;68;48.792;9.164;2022-08-19T16:17:31;23.20;89.00
152;DHT22;68;48.792;9.164;2022-08-19T16:20:00;23.10;89.80
152;DHT22;68;48.792;9.164;2022-08-19T16:22:28;23.00;91.00
152;DHT22;68;48.792;9.164;2022-08-19T16:24:56;22.40;91.60
152;DHT22;68;48.792;9.164;2022-08-19T16:27:23;22.20;90.90
152;DHT22;68;48.792;9.164;2022-08-19T16:29:51;22.10;90.50
152;DHT22;68;48.792;9.164;2022-08-19T16:32:18;22.20;90.60
152;DHT22;68;48.792;9.164;2022-08-19T16:34:46;22.50;91.60
152;DHT22;68;48.792;9.164;2022-08-19T16:37:14;22.10;90.30
152;DHT22;68;48.792;9.164;2022-08-19T16:39:41;22.30;90.90
152;DHT22;68;48.792;9.164;2022-08-19T16:42:09;22.20;91.00
152;DHT22;68;48.792;9.164;2022-08-19T16:44:40;22.30;91.30
152;DHT22;68;48.792;9.164;2022-08-19T16:47:09;22.20;91.30
152;DHT22;68;48.792;9.164;2022-08-19T16:49:37;22.00;90.30
152;DHT22;68;48.792;9.164;2022-08-19T16:52:04;22.00;90.10
152;DHT22;68;48.792;9.164;2022-08-19T16:54:34;21.90;90.00
152;DHT22;68;48.792;9.164;2022-08-19T16:57:01;21.90;90.10
152;DHT22;68;48.792;9.164;2022-08-19T16:59:27;21.80;90.10
152;DHT22;68;48.792;9.164;2022-08-19T17:01:54;22.10;90.30